createdAt,value
2023-03-28T00:01:45.733Z,89.02
2023-03-28T00:03:48.436Z,89.21
2023-03-28T00:05:56.246Z,89.24
2023-03-28T00:08:00.175Z,89.55
2023-03-28T00:10:04.107Z,89.81
2023-03-28T00:12:07.265Z,89.94
2023-03-28T00:14:10.078Z,89.95
2023-03-28T00:16:13.935Z,90.17
2023-03-28T00:18:16.593Z,90.44
2023-03-28T00:20:20.040Z,90.56
2023-03-28T00:22:22.910Z,90.65
2023-03-28T00:24:26.178Z,90.94
2023-03-28T00:26:34.570Z,90.82
2023-03-28T00:28:38.196Z,91.35
2023-03-28T00:30:41.146Z,91.75
2023-03-28T00:32:43.954Z,91.86
2023-03-28T00:34:46.539Z,91.98
2023-03-28T00:36:50.888Z,92.39
2023-03-28T00:38:54.199Z,92.61
2023-03-28T00:40:58.024Z,92.73
2023-03-28T00:43:00.862Z,93.24
2023-03-28T00:45:03.725Z,93.41
2023-03-28T00:47:25.861Z,93.66
2023-03-28T00:49:28.617Z,93.75
2023-03-28T00:51:37.732Z,93.51
2023-03-28T00:53:41.714Z,93.98
2023-03-28T00:55:58.400Z,94.41
2023-03-28T00:58:02.570Z,94.47
2023-03-28T01:00:12.549Z,94.62
2023-03-28T01:02:15.743Z,94.67
2023-03-28T01:04:20.786Z,94.79
2023-03-28T01:06:26.251Z,94.50
2023-03-28T01:08:36.189Z,94.95
2023-03-28T01:10:39.320Z,94.86
2023-03-28T01:12:43.684Z,95.04
2023-03-28T01:14:48.025Z,94.98
2023-03-28T01:16:51.449Z,95.02
2023-03-28T01:18:54.107Z,95.31
2023-03-28T01:21:15.801Z,95.00
2023-03-28T01:23:18.344Z,95.28
2023-03-28T01:25:55.743Z,95.08
2023-03-28T01:28:24.525Z,95.19
2023-03-28T01:30:45.785Z,95.16
2023-03-28T01:33:18.901Z,95.11
2023-03-28T01:36:04.728Z,94.74
2023-03-28T01:38:14.274Z,94.93
2023-03-28T01:40:43.012Z,95.32
2023-03-28T01:43:02.822Z,95.17
2023-03-28T01:45:22.375Z,95.06
2023-03-28T01:47:27.499Z,95.33
2023-03-28T01:49:42.324Z,95.44
2023-03-28T01:52:23.593Z,95.63
2023-03-28T01:54:41.486Z,95.61
2023-03-28T01:57:19.212Z,95.77
2023-03-28T01:59:31.956Z,95.90
2023-03-28T02:01:45.489Z,96.19
2023-03-28T02:03:52.318Z,96.25
2023-03-28T02:05:57.716Z,96.37
2023-03-28T02:08:04.159Z,96.57
2023-03-28T02:10:08.971Z,96.23
2023-03-28T02:12:25.262Z,96.56
2023-03-28T02:14:34.708Z,96.46
2023-03-28T02:17:04.927Z,96.25
2023-03-28T02:19:09.771Z,96.23
2023-03-28T02:21:19.600Z,95.95
2023-03-28T02:23:28.694Z,95.95
2023-03-28T02:25:32.552Z,95.75
2023-03-28T02:27:37.704Z,95.72
2023-03-28T02:29:40.483Z,95.67
2023-03-28T02:31:43.250Z,95.55
2023-03-28T02:33:48.320Z,95.53
2023-03-28T02:35:58.143Z,95.29
2023-03-28T02:38:17.635Z,95.03
2023-03-28T02:40:40.683Z,95.27
2023-03-28T02:43:16.988Z,95.02
2023-03-28T02:45:34.046Z,95.12
2023-03-28T02:47:39.456Z,94.83
2023-03-28T02:49:50.863Z,94.94
2023-03-28T02:52:52.519Z,95.71
2023-03-28T02:55:20.693Z,95.96
2023-03-28T02:57:45.848Z,96.27
2023-03-28T02:59:58.317Z,96.59
2023-03-28T03:02:03.575Z,97.05
2023-03-28T03:04:07.048Z,97.21
2023-03-28T03:06:10.427Z,97.70
2023-03-28T03:08:13.289Z,98.04
2023-03-28T03:10:17.323Z,98.04
2023-03-28T03:12:24.129Z,97.97
2023-03-28T03:14:27.443Z,97.88
2023-03-28T03:16:30.102Z,97.84
2023-03-28T03:18:32.759Z,97.35
2023-03-28T03:20:35.365Z,97.41
2023-03-28T03:22:38.172Z,97.58
2023-03-28T03:24:41.031Z,97.79
2023-03-28T03:26:43.651Z,97.52
2023-03-28T03:28:46.466Z,97.29
2023-03-28T03:30:49.133Z,97.59
2023-03-28T03:32:51.796Z,97.33
2023-03-28T03:34:54.492Z,97.48
2023-03-28T03:36:57.145Z,97.49
2023-03-28T03:39:00.290Z,97.55
2023-03-28T03:41:03.198Z,97.10
2023-03-28T03:43:06.161Z,97.44
2023-03-28T03:45:10.180Z,97.56
2023-03-28T03:47:13.483Z,97.36
2023-03-28T03:49:16.068Z,96.96
2023-03-28T03:51:19.052Z,96.67
2023-03-28T03:53:21.732Z,95.85
2023-03-28T03:55:27.653Z,95.34
2023-03-28T03:57:30.630Z,95.09
2023-03-28T03:59:33.288Z,94.86
2023-03-28T04:01:36.159Z,94.12
2023-03-28T04:03:39.416Z,93.48
2023-03-28T04:05:42.095Z,93.36
2023-03-28T04:07:44.895Z,93.33
2023-03-28T04:09:47.907Z,93.48
2023-03-28T04:11:50.563Z,93.35
2023-03-28T04:13:53.187Z,93.20
2023-03-28T04:15:56.321Z,93.05
2023-03-28T04:17:59.044Z,93.22
2023-03-28T04:20:08.109Z,93.11
2023-03-28T04:22:13.275Z,92.72
2023-03-28T04:24:17.008Z,92.65
2023-03-28T04:26:29.151Z,92.58
2023-03-28T04:28:32.025Z,92.51
2023-03-28T04:30:34.646Z,92.58
2023-03-28T04:32:37.915Z,92.53
2023-03-28T04:34:40.658Z,92.59
2023-03-28T04:36:44.065Z,92.63
2023-03-28T04:38:46.762Z,92.42
2023-03-28T04:40:50.186Z,92.43
2023-03-28T04:42:52.757Z,92.12
2023-03-28T04:44:55.534Z,91.91
2023-03-28T04:46:58.921Z,91.94
2023-03-28T04:49:01.522Z,91.61
2023-03-28T04:51:04.533Z,91.78
2023-03-28T04:53:07.173Z,92.05
2023-03-28T04:55:10.512Z,92.29
2023-03-28T04:57:13.392Z,92.58
2023-03-28T04:59:17.104Z,93.16
2023-03-28T05:01:19.816Z,93.38
2023-03-28T05:03:24.875Z,93.43
2023-03-28T05:05:27.832Z,93.49
2023-03-28T05:07:30.519Z,92.80
2023-03-28T05:09:33.994Z,92.83
2023-03-28T05:11:36.803Z,91.89
2023-03-28T05:13:39.452Z,91.04
2023-03-28T05:15:42.850Z,90.85
2023-03-28T05:17:45.659Z,90.23
2023-03-28T05:19:48.302Z,90.06
2023-03-28T05:21:51.187Z,89.96
2023-03-28T05:23:53.775Z,89.89
2023-03-28T05:25:56.435Z,89.48
2023-03-28T05:27:59.502Z,88.55
2023-03-28T05:30:02.245Z,88.14
2023-03-28T05:32:07.354Z,87.46
2023-03-28T05:34:10.092Z,87.37
2023-03-28T05:36:13.281Z,87.76
2023-03-28T05:38:17.060Z,87.93
2023-03-28T05:40:20.378Z,87.83
2023-03-28T05:42:23.341Z,87.86
2023-03-28T05:44:26.299Z,87.75
2023-03-28T05:46:28.892Z,86.98
2023-03-28T05:48:32.001Z,86.61
2023-03-28T05:50:34.658Z,85.97
2023-03-28T05:52:37.744Z,85.21
2023-03-28T05:54:40.576Z,84.24
2023-03-28T05:56:53.397Z,84.08
2023-03-28T05:58:56.109Z,83.60
2023-03-28T06:00:59.005Z,83.02
2023-03-28T06:03:02.080Z,83.44
2023-03-28T06:05:05.331Z,82.44
2023-03-28T06:07:09.007Z,82.46
2023-03-28T06:09:12.452Z,81.94
2023-03-28T06:11:15.694Z,81.41
2023-03-28T06:13:19.844Z,80.66
2023-03-28T06:15:45.326Z,80.55
2023-03-28T06:17:49.681Z,80.53
2023-03-28T06:19:52.686Z,80.41
2023-03-28T06:21:55.686Z,79.67
2023-03-28T06:24:00.709Z,78.98
2023-03-28T06:26:05.222Z,78.33
2023-03-28T06:28:08.648Z,78.02
2023-03-28T06:30:17.544Z,78.02
2023-03-28T06:32:21.784Z,78.01
2023-03-28T06:34:52.826Z,77.60
2023-03-28T06:37:37.167Z,77.10
2023-03-28T06:40:03.917Z,76.87
2023-03-28T06:42:16.275Z,76.82
2023-03-28T06:44:20.149Z,76.92
2023-03-28T06:46:23.500Z,76.90
2023-03-28T06:48:33.581Z,77.71
2023-03-28T06:50:38.433Z,78.84
2023-03-28T06:52:41.270Z,79.46
2023-03-28T06:54:44.967Z,79.11
2023-03-28T06:56:50.253Z,78.77
2023-03-28T06:58:53.122Z,78.35
2023-03-28T07:00:58.915Z,78.04
2023-03-28T07:03:01.863Z,78.06
2023-03-28T07:05:04.939Z,78.38
2023-03-28T07:07:09.635Z,78.96
2023-03-28T07:09:12.475Z,78.90
2023-03-28T07:11:15.330Z,78.03
2023-03-28T07:13:18.357Z,77.70
2023-03-28T07:15:21.150Z,76.81
2023-03-28T07:17:24.140Z,76.97
2023-03-28T07:19:27.078Z,75.88
2023-03-28T07:21:29.756Z,75.35
2023-03-28T07:23:33.152Z,75.07
2023-03-28T07:25:38.830Z,74.85
2023-03-28T07:27:41.791Z,74.17
2023-03-28T07:29:44.594Z,74.60
2023-03-28T07:31:47.355Z,73.72
2023-03-28T07:33:50.626Z,73.88
2023-03-28T07:35:53.642Z,73.95
2023-03-28T07:37:56.720Z,73.87
2023-03-28T07:40:01.912Z,73.10
2023-03-28T07:42:11.080Z,72.87
2023-03-28T07:44:13.828Z,71.74
2023-03-28T07:46:16.838Z,71.13
2023-03-28T07:48:19.919Z,69.39
2023-03-28T07:50:24.843Z,69.22
2023-03-28T07:52:28.235Z,68.97
2023-03-28T07:54:33.332Z,68.94
2023-03-28T07:56:36.081Z,69.03
2023-03-28T07:58:40.079Z,68.88
2023-03-28T08:00:43.354Z,68.40
2023-03-28T08:02:46.365Z,67.76
2023-03-28T08:04:49.154Z,67.08
2023-03-28T08:06:52.564Z,67.00
2023-03-28T08:08:55.182Z,66.67
2023-03-28T08:10:58.123Z,65.58
2023-03-28T08:13:01.030Z,64.84
2023-03-28T08:15:04.847Z,65.14
2023-03-28T08:17:07.549Z,64.68
2023-03-28T08:19:11.858Z,64.66
2023-03-28T08:21:14.831Z,63.96
2023-03-28T08:23:17.929Z,63.58
2023-03-28T08:25:20.989Z,63.06
2023-03-28T08:27:23.642Z,62.54
2023-03-28T08:29:26.420Z,62.31
2023-03-28T08:31:29.661Z,61.71
2023-03-28T08:33:32.962Z,61.69
2023-03-28T08:35:35.994Z,61.42
2023-03-28T08:37:38.692Z,61.27
2023-03-28T08:39:42.846Z,61.20
2023-03-28T08:41:51.497Z,61.31
2023-03-28T08:44:18.375Z,61.79
2023-03-28T08:46:23.624Z,61.55
2023-03-28T08:48:42.041Z,60.64
2023-03-28T08:51:23.119Z,60.85
2023-03-28T08:53:37.572Z,60.90
2023-03-28T08:55:43.933Z,60.40
2023-03-28T08:57:50.933Z,60.89
2023-03-28T09:00:00.043Z,59.92
2023-03-28T09:02:02.768Z,60.29
2023-03-28T09:04:06.317Z,59.49
2023-03-28T09:06:28.424Z,58.58
2023-03-28T09:08:49.669Z,58.52
2023-03-28T09:11:06.663Z,58.61
2023-03-28T09:13:25.456Z,59.41
2023-03-28T09:15:51.318Z,59.96
2023-03-28T09:18:09.301Z,58.57
2023-03-28T09:20:35.243Z,58.45
2023-03-28T09:22:56.511Z,57.89
2023-03-28T09:25:23.207Z,56.97
2023-03-28T09:27:34.510Z,57.27
2023-03-28T09:29:40.235Z,56.88
2023-03-28T09:31:51.270Z,57.22
2023-03-28T09:33:58.545Z,57.13
2023-03-28T09:36:03.362Z,57.30
2023-03-28T09:38:15.505Z,57.03
2023-03-28T09:40:25.275Z,57.53
2023-03-28T09:42:47.000Z,56.92
2023-03-28T09:45:32.630Z,56.93
2023-03-28T09:47:35.742Z,56.76
2023-03-28T09:49:38.935Z,56.45
2023-03-28T09:51:41.987Z,56.12
2023-03-28T09:53:45.008Z,56.22
2023-03-28T09:55:58.086Z,56.38
2023-03-28T09:58:11.848Z,56.27
2023-03-28T10:00:21.576Z,56.22
2023-03-28T10:02:28.562Z,56.45
2023-03-28T10:04:34.430Z,56.05
2023-03-28T10:06:39.916Z,55.52
2023-03-28T10:08:42.940Z,55.38
2023-03-28T10:10:55.591Z,54.78
2023-03-28T10:13:02.532Z,54.70
2023-03-28T10:15:08.261Z,54.40
2023-03-28T10:17:27.254Z,54.60
2023-03-28T10:19:36.320Z,55.44
2023-03-28T10:21:39.147Z,56.38
2023-03-28T10:23:53.357Z,56.45
2023-03-28T10:26:01.972Z,56.78
2023-03-28T10:28:07.436Z,57.42
2023-03-28T10:30:29.744Z,57.87
2023-03-28T10:32:32.485Z,58.31
2023-03-28T10:34:35.430Z,57.96
2023-03-28T10:36:42.981Z,57.83
2023-03-28T10:38:48.446Z,57.84
2023-03-28T10:41:12.926Z,57.38
2023-03-28T10:43:16.022Z,55.94
2023-03-28T10:45:36.501Z,55.21
2023-03-28T10:47:41.948Z,55.30
2023-03-28T10:49:51.493Z,55.28
2023-03-28T10:51:55.132Z,55.10
2023-03-28T10:54:03.406Z,55.57
2023-03-28T10:56:42.871Z,55.54
2023-03-28T10:59:05.930Z,54.82
2023-03-28T11:01:22.372Z,54.61
2023-03-28T11:03:42.635Z,54.50
2023-03-28T11:06:09.589Z,54.64
2023-03-28T11:08:34.713Z,54.41
2023-03-28T11:10:44.774Z,53.72
2023-03-28T11:13:18.203Z,53.63
2023-03-28T11:15:41.456Z,53.88
2023-03-28T11:17:59.892Z,54.22
2023-03-28T11:20:32.260Z,53.39
2023-03-28T11:22:55.506Z,53.83
2023-03-28T11:25:28.908Z,54.51
2023-03-28T11:27:40.095Z,53.97
2023-03-28T11:29:49.870Z,53.98
2023-03-28T11:32:36.778Z,54.23
2023-03-28T11:34:49.232Z,55.10
2023-03-28T11:37:01.050Z,56.02
2023-03-28T11:39:21.896Z,56.38
2023-03-28T11:41:30.679Z,56.93
2023-03-28T11:44:30.998Z,56.05
2023-03-28T11:46:57.412Z,55.08
2023-03-28T11:49:17.163Z,53.14
2023-03-28T11:51:29.416Z,53.09
2023-03-28T11:53:47.654Z,52.26
2023-03-28T11:56:04.836Z,50.64
2023-03-28T11:58:25.944Z,49.81
2023-03-28T12:00:40.953Z,49.31
2023-03-28T12:03:17.185Z,48.45
2023-03-28T12:05:46.016Z,49.12
2023-03-28T12:08:08.280Z,48.09
2023-03-28T12:10:36.340Z,48.04
2023-03-28T12:12:55.541Z,48.43
2023-03-28T12:15:15.518Z,48.21
2023-03-28T12:17:26.161Z,47.05
2023-03-28T12:19:36.940Z,47.21
2023-03-28T12:21:45.983Z,46.61
2023-03-28T12:24:17.611Z,45.50
2023-03-28T12:26:28.939Z,45.36
2023-03-28T12:28:40.171Z,45.57
2023-03-28T12:30:51.008Z,45.42
2023-03-28T12:33:02.645Z,45.31
2023-03-28T12:35:22.429Z,45.44
2023-03-28T12:37:33.476Z,45.97
2023-03-28T12:39:38.888Z,46.75
2023-03-28T12:41:42.077Z,47.30
2023-03-28T12:43:55.877Z,47.09
2023-03-28T12:46:02.921Z,46.99
2023-03-28T12:48:12.785Z,47.35
2023-03-28T12:50:26.632Z,47.23
2023-03-28T12:52:33.144Z,47.03
2023-03-28T12:54:53.200Z,46.87
2023-03-28T12:57:37.539Z,45.58
2023-03-28T12:59:40.065Z,46.32
2023-03-28T13:01:53.130Z,46.06
2023-03-28T13:04:21.952Z,46.10
2023-03-28T13:06:53.276Z,45.93
2023-03-28T13:09:25.070Z,45.25
2023-03-28T13:11:40.030Z,45.72
2023-03-28T13:14:00.797Z,46.29
2023-03-28T13:16:42.759Z,45.69
2023-03-28T13:19:36.825Z,46.27
2023-03-28T13:21:46.378Z,46.18
2023-03-28T13:23:49.562Z,45.71
2023-03-28T13:25:56.917Z,45.67
2023-03-28T13:28:19.728Z,45.74
2023-03-28T13:30:26.880Z,44.99
2023-03-28T13:32:34.870Z,44.37
2023-03-28T13:34:37.547Z,44.43
2023-03-28T13:36:51.214Z,44.34
2023-03-28T13:39:19.278Z,44.40
2023-03-28T13:41:47.924Z,43.66
2023-03-28T13:43:57.094Z,44.56
2023-03-28T13:46:04.732Z,44.56
2023-03-28T13:48:13.387Z,45.04
2023-03-28T13:50:29.442Z,45.45
2023-03-28T13:52:32.780Z,46.33
2023-03-28T13:54:35.656Z,47.22
2023-03-28T13:56:43.638Z,47.37
2023-03-28T13:58:49.207Z,47.53
2023-03-28T14:01:07.097Z,47.94
2023-03-28T14:03:15.513Z,48.17
2023-03-28T14:05:44.881Z,48.47
2023-03-28T14:07:47.838Z,48.42
2023-03-28T14:09:51.344Z,48.18
2023-03-28T14:12:00.290Z,48.51
2023-03-28T14:14:16.239Z,48.09
2023-03-28T14:16:20.110Z,48.48
2023-03-28T14:18:33.819Z,48.90
2023-03-28T14:20:38.979Z,49.52
2023-03-28T14:22:59.775Z,50.46
2023-03-28T14:25:14.897Z,50.46
2023-03-28T14:27:36.316Z,50.80
2023-03-28T14:29:52.518Z,51.09
2023-03-28T14:31:55.607Z,51.93
2023-03-28T14:34:00.767Z,53.28
2023-03-28T14:36:06.133Z,54.78
2023-03-28T14:38:14.380Z,55.70
2023-03-28T14:40:24.120Z,56.29
2023-03-28T14:42:28.849Z,56.50
2023-03-28T14:44:36.280Z,56.97
2023-03-28T14:46:39.345Z,57.44
2023-03-28T14:48:42.941Z,57.39
2023-03-28T14:50:47.869Z,57.91
2023-03-28T14:52:50.663Z,58.73
2023-03-28T14:54:53.660Z,59.57
2023-03-28T14:56:58.210Z,59.71
2023-03-28T14:59:03.267Z,60.12
2023-03-28T15:01:07.338Z,60.54
2023-03-28T15:03:19.228Z,60.89
2023-03-28T15:05:23.386Z,61.38
2023-03-28T15:07:28.301Z,61.70
2023-03-28T15:09:35.182Z,61.79
2023-03-28T15:11:41.359Z,62.47
2023-03-28T15:13:48.085Z,62.04
2023-03-28T15:15:54.586Z,62.71
2023-03-28T15:17:59.748Z,63.72
2023-03-28T15:20:04.669Z,63.60
2023-03-28T15:22:20.032Z,64.48
2023-03-28T15:24:25.077Z,64.54
2023-03-28T15:26:58.685Z,64.89
2023-03-28T15:29:01.551Z,65.63
2023-03-28T15:31:04.686Z,65.85
2023-03-28T15:33:07.919Z,64.79
2023-03-28T15:35:36.146Z,64.71
2023-03-28T15:37:44.018Z,65.54
2023-03-28T15:39:51.223Z,64.80
2023-03-28T15:42:19.768Z,64.46
2023-03-28T15:44:32.168Z,64.74
2023-03-28T15:46:35.736Z,65.56
2023-03-28T15:48:39.172Z,65.41
2023-03-28T15:50:45.871Z,65.61
2023-03-28T15:52:48.566Z,65.37
2023-03-28T15:54:55.237Z,66.30
2023-03-28T15:57:01.221Z,67.38
2023-03-28T15:59:14.149Z,66.45
2023-03-28T16:01:29.030Z,66.29
2023-03-28T16:03:34.748Z,66.86
2023-03-28T16:05:37.917Z,66.78
2023-03-28T16:07:46.494Z,67.47
2023-03-28T16:09:51.417Z,67.58
2023-03-28T16:12:00.723Z,68.52
2023-03-28T16:14:03.556Z,69.36
2023-03-28T16:16:07.489Z,69.99
2023-03-28T16:18:10.242Z,70.23
2023-03-28T16:20:23.363Z,70.56
2023-03-28T16:22:26.615Z,70.75
2023-03-28T16:24:29.217Z,71.38
2023-03-28T16:26:32.020Z,72.00
2023-03-28T16:28:35.663Z,72.07
2023-03-28T16:30:41.741Z,72.44
2023-03-28T16:32:44.602Z,72.60
2023-03-28T16:34:47.267Z,73.30
2023-03-28T16:36:49.842Z,73.77
2023-03-28T16:38:52.639Z,73.87
2023-03-28T16:40:55.224Z,73.78
2023-03-28T16:42:57.843Z,74.25
2023-03-28T16:45:00.803Z,74.30
2023-03-28T16:47:03.611Z,74.68
2023-03-28T16:49:06.582Z,74.84
2023-03-28T16:51:09.228Z,75.17
2023-03-28T16:53:11.814Z,75.04
2023-03-28T16:55:17.177Z,75.52
2023-03-28T16:57:19.872Z,75.83
2023-03-28T16:59:23.679Z,76.17
2023-03-28T17:01:26.552Z,76.41
2023-03-28T17:03:29.370Z,76.18
2023-03-28T17:05:32.030Z,75.96
2023-03-28T17:07:34.880Z,76.37
2023-03-28T17:09:37.688Z,76.52
2023-03-28T17:11:40.580Z,76.71
2023-03-28T17:13:43.254Z,76.32
2023-03-28T17:15:46.252Z,76.86
2023-03-28T17:17:49.217Z,77.07
2023-03-28T17:19:51.869Z,76.89
2023-03-28T17:21:56.098Z,76.04
2023-03-28T17:23:59.303Z,75.18
2023-03-28T17:26:02.386Z,75.17
2023-03-28T17:28:05.342Z,75.09
2023-03-28T17:30:08.877Z,74.64
2023-03-28T17:32:11.818Z,74.79
2023-03-28T17:34:14.731Z,74.45
2023-03-28T17:36:28.409Z,74.63
2023-03-28T17:38:31.053Z,74.69
2023-03-28T17:40:33.670Z,74.97
2023-03-28T17:42:36.510Z,75.29
2023-03-28T17:44:39.148Z,76.12
2023-03-28T17:46:42.213Z,75.91
2023-03-28T17:48:46.737Z,76.51
2023-03-28T17:50:54.024Z,76.53
2023-03-28T17:52:56.639Z,76.85
2023-03-28T17:54:59.440Z,76.57
2023-03-28T17:57:02.681Z,76.78
2023-03-28T17:59:05.548Z,77.44
2023-03-28T18:01:13.063Z,76.94
2023-03-28T18:03:15.898Z,77.16
2023-03-28T18:05:18.714Z,77.67
2023-03-28T18:07:21.398Z,77.63
2023-03-28T18:09:24.186Z,77.86
2023-03-28T18:11:27.241Z,78.04
2023-03-28T18:13:29.830Z,78.25
2023-03-28T18:15:32.513Z,78.27
2023-03-28T18:17:35.467Z,78.25
2023-03-28T18:19:38.169Z,78.66
2023-03-28T18:21:40.980Z,78.59
2023-03-28T18:23:43.664Z,78.82
2023-03-28T18:25:47.729Z,79.06
2023-03-28T18:27:50.818Z,78.95
2023-03-28T18:29:53.671Z,78.99
2023-03-28T18:31:56.553Z,78.84
2023-03-28T18:33:59.287Z,79.01
2023-03-28T18:36:02.242Z,79.30
2023-03-28T18:38:05.971Z,79.59
2023-03-28T18:40:11.266Z,79.76
2023-03-28T18:42:15.293Z,79.55
2023-03-28T18:44:18.574Z,79.85
2023-03-28T18:46:21.270Z,80.10
2023-03-28T18:48:24.056Z,80.31
2023-03-28T18:50:27.371Z,80.67
2023-03-28T18:52:30.587Z,79.53
2023-03-28T18:54:34.692Z,80.08
2023-03-28T18:56:38.126Z,79.84
2023-03-28T18:58:40.889Z,79.61
2023-03-28T19:00:43.589Z,79.61
2023-03-28T19:02:48.133Z,79.76
2023-03-28T19:04:51.022Z,79.56
2023-03-28T19:06:53.702Z,79.66
2023-03-28T19:08:56.301Z,79.83
2023-03-28T19:11:00.948Z,79.65
2023-03-28T19:13:03.668Z,79.66
2023-03-28T19:15:08.542Z,79.97
2023-03-28T19:17:11.396Z,79.86
2023-03-28T19:19:14.339Z,79.83
2023-03-28T19:21:19.521Z,79.51
2023-03-28T19:23:26.569Z,79.63
2023-03-28T19:25:29.173Z,80.41
2023-03-28T19:27:32.163Z,80.17
2023-03-28T19:29:36.246Z,80.05
2023-03-28T19:31:39.066Z,80.54
2023-03-28T19:33:42.129Z,80.39
2023-03-28T19:35:44.947Z,79.85
2023-03-28T19:37:47.659Z,80.58
2023-03-28T19:39:50.301Z,80.39
2023-03-28T19:41:52.968Z,80.84
2023-03-28T19:43:55.993Z,80.61
2023-03-28T19:46:06.470Z,80.81
2023-03-28T19:48:09.244Z,81.35
2023-03-28T19:50:12.072Z,81.30
2023-03-28T19:52:14.728Z,81.39
2023-03-28T19:54:17.375Z,81.98
2023-03-28T19:56:20.049Z,81.75
2023-03-28T19:58:23.634Z,81.93
2023-03-28T20:00:26.402Z,82.51
2023-03-28T20:02:29.199Z,81.76
2023-03-28T20:04:31.983Z,82.55
2023-03-28T20:06:34.665Z,82.42
2023-03-28T20:08:37.681Z,82.44
2023-03-28T20:10:45.216Z,83.31
2023-03-28T20:12:47.892Z,82.91
2023-03-28T20:14:50.567Z,83.58
2023-03-28T20:16:53.240Z,83.41
2023-03-28T20:18:56.459Z,84.00
2023-03-28T20:21:04.442Z,83.80
2023-03-28T20:23:07.847Z,84.11
2023-03-28T20:25:10.677Z,84.32
2023-03-28T20:27:13.311Z,84.94
2023-03-28T20:29:16.015Z,84.91
2023-03-28T20:31:19.222Z,85.00
2023-03-28T20:33:22.321Z,84.63
2023-03-28T20:35:27.504Z,85.17
2023-03-28T20:37:30.370Z,85.57
2023-03-28T20:39:36.967Z,85.76
2023-03-28T20:41:40.258Z,84.83
2023-03-28T20:43:47.299Z,85.50
2023-03-28T20:46:01.746Z,85.29
2023-03-28T20:48:07.672Z,85.57
2023-03-28T20:50:10.805Z,85.72
2023-03-28T20:52:13.480Z,85.42
2023-03-28T20:54:16.777Z,85.86
2023-03-28T20:56:20.272Z,86.12
2023-03-28T20:58:23.797Z,85.80
2023-03-28T21:00:30.268Z,85.95
2023-03-28T21:02:33.560Z,86.06
2023-03-28T21:04:36.559Z,86.54
2023-03-28T21:06:39.791Z,85.95
2023-03-28T21:08:47.780Z,86.40
2023-03-28T21:10:53.648Z,86.21
2023-03-28T21:12:56.248Z,86.12
2023-03-28T21:14:58.876Z,86.88
2023-03-28T21:17:05.382Z,86.96
2023-03-28T21:19:08.374Z,86.81
2023-03-28T21:21:12.388Z,86.72
2023-03-28T21:23:40.066Z,87.31
2023-03-28T21:25:45.084Z,87.70
2023-03-28T21:27:47.713Z,86.70
2023-03-28T21:29:50.364Z,87.43
2023-03-28T21:31:53.048Z,87.15
2023-03-28T21:33:57.490Z,87.96
2023-03-28T21:36:00.508Z,87.08
2023-03-28T21:38:03.086Z,87.65
2023-03-28T21:40:07.367Z,87.75
2023-03-28T21:42:10.145Z,87.03
2023-03-28T21:44:12.725Z,87.57
2023-03-28T21:46:18.464Z,87.39
2023-03-28T21:48:21.447Z,87.48
2023-03-28T21:50:24.600Z,87.71
2023-03-28T21:52:27.908Z,87.29
2023-03-28T21:54:30.864Z,87.19
2023-03-28T21:56:34.052Z,87.39
2023-03-28T21:58:36.637Z,86.81
2023-03-28T22:00:39.320Z,87.38
2023-03-28T22:02:43.356Z,87.32
2023-03-28T22:04:47.295Z,86.78
2023-03-28T22:06:49.872Z,87.54
2023-03-28T22:08:53.352Z,87.96
2023-03-28T22:10:58.714Z,88.07
2023-03-28T22:13:01.876Z,87.41
2023-03-28T22:15:05.078Z,87.81
2023-03-28T22:17:09.317Z,87.91
2023-03-28T22:19:13.864Z,88.26
2023-03-28T22:21:17.459Z,88.17
2023-03-28T22:23:21.948Z,88.34
2023-03-28T22:25:24.509Z,88.18
2023-03-28T22:27:27.889Z,88.45
2023-03-28T22:29:30.573Z,88.52
2023-03-28T22:31:33.238Z,88.78
2023-03-28T22:33:37.200Z,88.91
2023-03-28T22:35:40.428Z,89.38
2023-03-28T22:37:43.180Z,89.37
2023-03-28T22:39:46.825Z,89.46
2023-03-28T22:41:49.455Z,89.27
2023-03-28T22:43:52.123Z,89.96
2023-03-28T22:45:54.762Z,89.89
2023-03-28T22:48:03.371Z,89.74
2023-03-28T22:50:11.966Z,90.52
2023-03-28T22:52:14.526Z,89.89
2023-03-28T22:54:21.857Z,90.30
2023-03-28T22:56:25.641Z,90.51
2023-03-28T22:58:28.237Z,90.45
2023-03-28T23:00:30.892Z,90.77
2023-03-28T23:02:33.498Z,90.63
2023-03-28T23:04:36.119Z,90.36
2023-03-28T23:06:40.293Z,90.45
2023-03-28T23:08:42.838Z,90.96
2023-03-28T23:10:47.369Z,90.90
2023-03-28T23:12:50.122Z,90.64
2023-03-28T23:14:53.788Z,90.88
2023-03-28T23:16:58.324Z,90.98
2023-03-28T23:19:01.125Z,91.19
2023-03-28T23:21:04.639Z,91.15
2023-03-28T23:23:08.976Z,90.81
2023-03-28T23:25:12.914Z,91.14
2023-03-28T23:27:15.842Z,91.39
2023-03-28T23:29:18.386Z,91.40
2023-03-28T23:31:21.188Z,91.31
2023-03-28T23:33:24.098Z,91.71
2023-03-28T23:35:26.698Z,90.99
2023-03-28T23:37:29.884Z,91.21
2023-03-28T23:39:32.613Z,91.20
2023-03-28T23:41:35.213Z,91.47
2023-03-28T23:43:37.848Z,91.32
2023-03-28T23:45:40.636Z,91.17
2023-03-28T23:47:44.422Z,91.80
2023-03-28T23:49:47.702Z,91.60
2023-03-28T23:51:50.957Z,91.00
2023-03-28T23:53:53.574Z,91.81
2023-03-28T23:55:56.184Z,91.84
2023-03-28T23:58:02.005Z,91.37
